< < Back
Terminal Aerodrome Forecast


Current Version              Previous Versions:   1  2  3  4  5  6  7  8  9  

Terminal Aerodrome Forecast

277
FTUS44 KMOB 300500
TAFMOB
TAF
KMOB 300520Z 3006/3106 36004KT P6SM FEW060 SCT070
     FM301300 34008KT P6SM SCT020=

Latest METAR

507
SAUS80 KWBC 310100
MTRMOB
METAR KMOB 310056Z 02005KT 10SM SCT250 25/17 A3002 RMK AO2 SLP163
T02500167


USA.gov is the U.S. government's official web portal to all federal, state and local government web resources and services.